createdAt,value
2022-08-22T00:00:11.611Z,3.90
2022-08-22T00:03:08.941Z,3.02
2022-08-22T00:03:12.195Z,3.02
2022-08-22T00:03:15.561Z,3.22
2022-08-22T00:03:18.473Z,4.12
2022-08-22T00:05:59.090Z,4.37
2022-08-22T00:08:38.582Z,4.90
2022-08-22T00:11:43.602Z,5.30
2022-08-22T00:14:25.765Z,5.50
2022-08-22T00:17:07.181Z,5.70
2022-08-22T00:19:42.805Z,5.97
2022-08-22T00:22:30.677Z,6.35
2022-08-22T00:25:49.761Z,6.30
2022-08-22T00:28:38.958Z,5.45
2022-08-22T00:31:42.552Z,5.80
2022-08-22T00:34:24.310Z,6.15
2022-08-22T00:37:14.097Z,5.90
2022-08-22T00:40:05.318Z,5.37
2022-08-22T00:43:07.949Z,4.97
2022-08-22T00:45:59.543Z,4.50
2022-08-22T00:48:48.080Z,4.42
2022-08-22T00:51:40.062Z,4.65
2022-08-22T00:54:46.932Z,4.70
2022-08-22T00:57:29.546Z,4.55
2022-08-22T01:00:13.452Z,4.87
2022-08-22T01:03:20.681Z,4.67
2022-08-22T01:06:15.120Z,5.12
2022-08-22T01:09:22.923Z,5.10
2022-08-22T01:12:26.278Z,5.05
2022-08-22T01:14:58.701Z,5.05
2022-08-22T01:18:08.758Z,5.15
2022-08-22T01:21:24.789Z,4.97
2022-08-22T01:24:19.008Z,4.90
2022-08-22T01:27:24.674Z,4.78
2022-08-22T01:30:21.867Z,4.78
2022-08-22T01:33:20.245Z,4.65
2022-08-22T01:36:01.731Z,4.80
2022-08-22T01:39:14.342Z,4.25
2022-08-22T01:42:02.686Z,4.53
2022-08-22T01:44:47.630Z,4.58
2022-08-22T01:47:26.134Z,4.35
2022-08-22T01:49:59.885Z,4.17
2022-08-22T01:53:09.199Z,4.40
2022-08-22T01:56:00.882Z,4.20
2022-08-22T01:58:33.729Z,4.60
2022-08-22T02:01:41.900Z,5.15
2022-08-22T02:04:23.397Z,5.12
2022-08-22T02:07:24.161Z,5.17
2022-08-22T02:10:07.474Z,5.67
2022-08-22T02:12:49.446Z,6.70
2022-08-22T02:15:28.198Z,8.88
2022-08-22T02:18:10.538Z,19.98
2022-08-22T02:20:43.700Z,27.37
2022-08-22T02:26:02.956Z,24.72
2022-08-22T02:29:06.150Z,20.15
2022-08-22T02:31:47.041Z,21.65
2022-08-22T02:34:32.781Z,20.77
2022-08-22T02:37:11.907Z,24.30
2022-08-22T02:39:48.152Z,23.40
2022-08-22T02:42:27.404Z,26.40
2022-08-22T02:45:22.966Z,33.67
2022-08-22T02:48:04.498Z,36.53
2022-08-22T02:50:46.975Z,28.32
2022-08-22T02:53:22.141Z,34.25
2022-08-22T02:56:22.930Z,43.58
2022-08-22T02:59:19.738Z,45.90
2022-08-22T03:01:58.280Z,49.80
2022-08-22T03:04:46.195Z,40.35
2022-08-22T03:07:28.437Z,34.20
2022-08-22T03:10:27.706Z,37.35
2022-08-22T03:13:18.984Z,37.75
2022-08-22T03:16:02.292Z,41.02
2022-08-22T03:19:08.187Z,35.28
2022-08-22T03:22:03.688Z,31.20
2022-08-22T03:27:33.272Z,24.92
2022-08-22T03:30:11.985Z,25.77
2022-08-22T03:32:59.281Z,19.70
2022-08-22T03:35:38.368Z,16.20
2022-08-22T03:38:32.231Z,12.15
2022-08-22T03:44:17.549Z,8.78
2022-08-22T03:47:03.119Z,7.75
2022-08-22T03:49:55.670Z,8.75
2022-08-22T03:56:11.994Z,14.78
2022-08-22T03:59:18.520Z,14.87
2022-08-22T04:02:42.903Z,15.98
2022-08-22T04:05:26.354Z,10.30
2022-08-22T04:08:09.937Z,9.68
2022-08-22T04:11:02.619Z,8.30
2022-08-22T04:14:14.697Z,4.87
2022-08-22T04:17:07.001Z,3.87
2022-08-22T04:19:55.117Z,3.67
2022-08-22T04:22:33.998Z,3.30
2022-08-22T04:25:30.222Z,3.55
2022-08-22T04:28:09.435Z,3.27
2022-08-22T04:30:48.613Z,3.22
2022-08-22T04:33:27.860Z,3.25
2022-08-22T04:36:09.659Z,3.40
2022-08-22T04:38:57.614Z,4.33
2022-08-22T04:41:36.289Z,4.78
2022-08-22T04:44:27.648Z,7.22
2022-08-22T04:47:03.448Z,6.65
2022-08-22T04:49:48.568Z,6.20
2022-08-22T04:52:39.859Z,9.73
2022-08-22T04:55:42.537Z,12.30
2022-08-22T04:58:37.247Z,10.90
2022-08-22T05:01:27.889Z,6.67
2022-08-22T05:04:12.674Z,6.20
2022-08-22T05:06:45.905Z,8.23
2022-08-22T05:09:21.231Z,6.08
2022-08-22T05:11:57.555Z,5.33
2022-08-22T05:14:30.639Z,5.40
2022-08-22T05:16:59.990Z,5.47
2022-08-22T05:19:38.015Z,5.92
2022-08-22T05:22:14.561Z,4.45
2022-08-22T05:24:49.217Z,4.75
2022-08-22T05:27:25.118Z,4.28
2022-08-22T05:29:58.303Z,4.30
2022-08-22T05:32:30.725Z,4.42
2022-08-22T05:35:02.586Z,5.20
2022-08-22T05:37:50.090Z,5.60
2022-08-22T05:40:25.782Z,6.15
2022-08-22T05:42:56.765Z,5.33
2022-08-22T05:45:27.227Z,5.90
2022-08-22T05:48:09.208Z,7.10
2022-08-22T05:50:54.116Z,5.80
2022-08-22T05:53:36.135Z,5.80
2022-08-22T05:56:28.532Z,5.90
2022-08-22T05:59:03.758Z,7.15
2022-08-22T06:01:48.399Z,6.78
2022-08-22T06:04:48.037Z,9.40
2022-08-22T06:07:31.204Z,6.08
2022-08-22T06:10:18.854Z,6.85
2022-08-22T06:13:03.622Z,6.25
2022-08-22T06:15:45.919Z,6.08
2022-08-22T06:18:21.164Z,5.85
2022-08-22T06:20:59.885Z,7.37
2022-08-22T06:23:32.958Z,7.90
2022-08-22T06:26:01.365Z,7.35
2022-08-22T06:28:37.936Z,6.35
2022-08-22T06:31:18.465Z,6.50
2022-08-22T06:34:08.454Z,6.22
2022-08-22T06:36:41.127Z,6.12
2022-08-22T06:39:31.651Z,6.70
2022-08-22T06:42:24.480Z,8.55
2022-08-22T06:45:16.012Z,9.73
2022-08-22T06:48:00.661Z,11.00
2022-08-22T06:50:33.026Z,11.05
2022-08-22T06:53:17.654Z,9.85
2022-08-22T06:55:55.301Z,10.90
2022-08-22T06:58:45.855Z,9.30
2022-08-22T07:01:21.945Z,8.75
2022-08-22T07:03:58.132Z,9.20
2022-08-22T07:06:40.995Z,8.83
2022-08-22T07:09:25.834Z,10.10
2022-08-22T07:11:56.706Z,9.85
2022-08-22T07:14:42.369Z,9.10
2022-08-22T07:17:21.118Z,9.23
2022-08-22T07:20:21.036Z,8.88
2022-08-22T07:22:59.998Z,8.45
2022-08-22T07:25:29.356Z,8.03
2022-08-22T07:28:21.945Z,8.18
2022-08-22T07:31:08.583Z,8.20
2022-08-22T07:33:47.353Z,8.28
2022-08-22T07:36:38.701Z,8.10
2022-08-22T07:39:17.743Z,7.47
2022-08-22T07:42:10.917Z,7.17
2022-08-22T07:44:47.135Z,5.42
2022-08-22T07:47:26.110Z,5.62
2022-08-22T07:49:56.516Z,5.72
2022-08-22T07:52:25.107Z,6.12
2022-08-22T07:55:01.085Z,6.37
2022-08-22T07:57:33.518Z,6.17
2022-08-22T08:00:08.310Z,6.80
2022-08-22T08:02:41.706Z,5.83
2022-08-22T08:05:10.756Z,5.95
2022-08-22T08:07:43.624Z,5.80
2022-08-22T08:12:57.895Z,6.10
2022-08-22T08:15:20.686Z,5.95
2022-08-22T08:17:54.173Z,5.37
2022-08-22T08:20:25.700Z,5.28
2022-08-22T08:22:55.599Z,5.08
2022-08-22T08:25:27.631Z,5.50
2022-08-22T08:28:18.990Z,4.90
2022-08-22T08:30:59.781Z,5.28
2022-08-22T08:33:30.860Z,4.85
2022-08-22T08:36:16.109Z,4.97
2022-08-22T08:38:57.683Z,4.80
2022-08-22T08:41:51.972Z,4.50
2022-08-22T08:44:39.912Z,5.30
2022-08-22T08:47:22.476Z,5.65
2022-08-22T08:50:01.391Z,5.60
2022-08-22T08:53:05.800Z,4.92
2022-08-22T08:56:08.069Z,4.72
2022-08-22T08:59:01.613Z,5.12
2022-08-22T09:01:47.012Z,5.05
2022-08-22T09:04:55.495Z,5.05
2022-08-22T09:07:52.358Z,4.78
2022-08-22T09:11:04.330Z,4.55
2022-08-22T09:14:16.661Z,4.77
2022-08-22T09:17:12.438Z,4.35
2022-08-22T09:20:19.740Z,4.17
2022-08-22T09:23:28.876Z,4.85
2022-08-22T09:26:20.183Z,4.20
2022-08-22T09:28:58.496Z,4.28
2022-08-22T09:31:47.634Z,4.60
2022-08-22T09:34:25.496Z,4.75
2022-08-22T09:37:07.532Z,3.90
2022-08-22T09:39:43.622Z,4.37
2022-08-22T09:42:22.525Z,4.25
2022-08-22T09:45:33.777Z,4.35
2022-08-22T09:48:34.043Z,4.53
2022-08-22T09:51:34.196Z,4.30
2022-08-22T09:54:16.573Z,4.42
2022-08-22T09:57:03.626Z,4.60
2022-08-22T10:00:17.603Z,4.10
2022-08-22T10:03:08.886Z,4.35
2022-08-22T10:05:53.923Z,3.95
2022-08-22T10:08:45.983Z,4.30
2022-08-22T10:11:27.247Z,3.85
2022-08-22T10:14:05.071Z,3.87
2022-08-22T10:17:21.635Z,4.08
2022-08-22T10:20:01.020Z,3.87
2022-08-22T10:23:06.119Z,3.83
2022-08-22T10:25:53.338Z,3.65
2022-08-22T10:28:39.171Z,3.85
2022-08-22T10:31:58.614Z,4.00
2022-08-22T10:34:21.799Z,4.08
2022-08-22T10:37:18.440Z,3.87
2022-08-22T10:40:14.692Z,3.77
2022-08-22T10:42:57.047Z,3.62
2022-08-22T10:45:37.429Z,3.70
2022-08-22T10:48:10.474Z,3.47
2022-08-22T10:50:47.198Z,3.40
2022-08-22T10:53:35.295Z,3.60
2022-08-22T10:56:33.769Z,3.65
2022-08-22T10:59:10.066Z,3.75
2022-08-22T11:01:44.257Z,3.72
2022-08-22T11:04:28.324Z,3.80
2022-08-22T11:07:38.099Z,4.00
2022-08-22T11:10:30.884Z,3.45
2022-08-22T11:13:14.582Z,3.95
2022-08-22T11:16:32.053Z,3.40
2022-08-22T11:19:33.781Z,3.30
2022-08-22T11:22:22.451Z,3.62
2022-08-22T11:25:40.650Z,3.52
2022-08-22T11:28:20.043Z,2.40
2022-08-22T11:31:19.403Z,2.40
2022-08-22T11:34:11.633Z,2.27
2022-08-22T11:36:47.848Z,2.08
2022-08-22T11:39:25.391Z,2.10
2022-08-22T11:42:21.792Z,2.12
2022-08-22T11:44:58.475Z,2.25
2022-08-22T11:47:31.572Z,2.83
2022-08-22T11:50:34.021Z,3.20
2022-08-22T11:53:29.821Z,12.28
2022-08-22T11:56:27.051Z,4.60
2022-08-22T11:59:02.918Z,2.80
2022-08-22T12:02:00.944Z,3.25
2022-08-22T12:04:35.820Z,3.55
2022-08-22T12:07:31.013Z,3.02
2022-08-22T12:10:19.387Z,3.05
2022-08-22T12:13:08.616Z,3.55
2022-08-22T12:15:58.592Z,4.00
2022-08-22T12:18:59.080Z,3.25
2022-08-22T12:21:56.736Z,3.60
2022-08-22T12:24:47.930Z,3.72
2022-08-22T12:27:29.953Z,3.50
2022-08-22T12:30:29.716Z,3.37
2022-08-22T12:33:27.520Z,2.90
2022-08-22T12:36:06.811Z,3.02
2022-08-22T12:39:03.092Z,3.17
2022-08-22T12:41:48.378Z,3.30
2022-08-22T12:44:41.957Z,3.35
2022-08-22T12:47:42.841Z,3.77
2022-08-22T12:50:40.463Z,3.65
2022-08-22T12:53:39.472Z,3.45
2022-08-22T12:56:21.394Z,3.00
2022-08-22T12:59:36.481Z,3.05
2022-08-22T13:02:35.527Z,2.45
2022-08-22T13:05:13.304Z,2.90
2022-08-22T13:07:48.257Z,4.05
2022-08-22T13:10:37.646Z,2.85
2022-08-22T13:13:12.180Z,2.55
2022-08-22T13:15:53.867Z,2.75
2022-08-22T13:18:31.659Z,2.75
2022-08-22T13:20:58.299Z,2.90
2022-08-22T13:23:39.518Z,2.67
2022-08-22T13:26:11.753Z,3.00
2022-08-22T13:29:24.513Z,3.20
2022-08-22T13:31:38.189Z,4.97
2022-08-22T13:34:14.485Z,2.95
2022-08-22T13:36:51.816Z,3.30
2022-08-22T13:39:27.139Z,3.00
2022-08-22T13:41:59.311Z,3.00
2022-08-22T13:44:37.601Z,3.10
2022-08-22T13:47:20.332Z,3.30
2022-08-22T13:49:55.175Z,2.90
2022-08-22T13:52:52.313Z,3.35
2022-08-22T13:55:30.117Z,2.90
2022-08-22T13:58:24.967Z,3.12
2022-08-22T14:01:04.170Z,2.67
2022-08-22T14:03:48.469Z,2.85
2022-08-22T14:06:41.419Z,3.00
2022-08-22T14:09:32.725Z,3.05
2022-08-22T14:12:15.418Z,2.70
2022-08-22T14:14:47.220Z,2.75
2022-08-22T14:17:19.917Z,3.10
2022-08-22T14:20:01.716Z,3.00
2022-08-22T14:22:36.184Z,3.02
2022-08-22T14:25:21.424Z,2.80
2022-08-22T14:28:09.592Z,3.60
2022-08-22T14:31:00.902Z,2.77
2022-08-22T14:33:40.943Z,3.17
2022-08-22T14:36:22.505Z,3.17
2022-08-22T14:39:06.978Z,3.25
2022-08-22T14:41:52.606Z,3.58
2022-08-22T14:44:33.560Z,3.00
2022-08-22T14:47:32.672Z,3.22
2022-08-22T14:49:59.783Z,3.20
2022-08-22T14:52:45.332Z,3.35
2022-08-22T14:55:26.992Z,2.90
2022-08-22T14:58:05.937Z,3.17
2022-08-22T15:00:43.605Z,2.95
2022-08-22T15:03:23.448Z,3.10
2022-08-22T15:06:07.924Z,3.55
2022-08-22T15:08:49.481Z,3.50
2022-08-22T15:11:24.669Z,3.27
2022-08-22T15:14:15.146Z,3.85
2022-08-22T15:16:54.032Z,2.87
2022-08-22T15:19:35.440Z,10.58
2022-08-22T15:22:20.350Z,3.30
2022-08-22T15:25:17.775Z,2.67
2022-08-22T15:28:14.450Z,3.40
2022-08-22T15:30:49.723Z,2.65
2022-08-22T15:33:38.579Z,2.40
2022-08-22T15:36:20.627Z,3.35
2022-08-22T15:38:56.473Z,4.00
2022-08-22T15:41:36.702Z,4.10
2022-08-22T15:44:33.014Z,3.58
2022-08-22T15:46:58.786Z,3.20
2022-08-22T15:49:30.898Z,3.95
2022-08-22T15:52:04.272Z,5.70
2022-08-22T16:00:30.877Z,2.20
2022-08-22T16:03:04.059Z,2.40
2022-08-22T16:08:38.614Z,2.40
2022-08-22T16:11:32.252Z,3.40
2022-08-22T16:14:21.385Z,3.20
2022-08-22T16:16:58.023Z,3.40
2022-08-22T16:19:29.091Z,3.10
2022-08-22T16:22:02.214Z,3.60
2022-08-22T16:24:33.891Z,3.58
2022-08-22T16:27:16.627Z,6.22
2022-08-22T16:29:46.208Z,6.92
2022-08-22T16:32:19.237Z,3.70
2022-08-22T16:34:47.829Z,3.92
2022-08-22T16:37:27.047Z,3.65
2022-08-22T16:40:05.257Z,3.12
2022-08-22T16:42:40.964Z,3.35
2022-08-22T16:45:26.230Z,3.17
2022-08-22T16:47:58.879Z,3.10
2022-08-22T16:50:40.346Z,3.45
2022-08-22T16:53:22.305Z,3.45
2022-08-22T16:56:10.378Z,2.75
2022-08-22T16:59:22.313Z,2.55
2022-08-22T17:04:39.511Z,3.60
2022-08-22T17:07:18.267Z,4.58
2022-08-22T17:10:17.318Z,4.83
2022-08-22T17:13:26.582Z,3.40
2022-08-22T17:16:28.211Z,2.90
2022-08-22T17:19:16.510Z,3.65
2022-08-22T17:21:53.686Z,2.40
2022-08-22T17:24:42.352Z,2.40
2022-08-22T17:27:39.076Z,2.62
2022-08-22T17:30:23.319Z,2.20
2022-08-22T17:33:17.599Z,2.72
2022-08-22T17:35:54.773Z,2.80
2022-08-22T17:38:45.419Z,2.83
2022-08-22T17:41:38.431Z,2.77
2022-08-22T17:44:39.935Z,2.60
2022-08-22T17:47:15.641Z,3.02
2022-08-22T17:50:00.491Z,10.50
2022-08-22T17:52:33.807Z,2.87
2022-08-22T17:55:34.318Z,2.90
2022-08-22T17:58:07.278Z,3.12
2022-08-22T18:00:48.788Z,2.67
2022-08-22T18:03:33.684Z,2.90
2022-08-22T18:06:09.893Z,2.80
2022-08-22T18:12:04.220Z,3.35
2022-08-22T18:14:52.342Z,4.10
2022-08-22T18:17:34.350Z,2.50
2022-08-22T18:20:10.415Z,2.52
2022-08-22T18:22:52.208Z,2.77
2022-08-22T18:25:37.680Z,3.02
2022-08-22T18:28:10.830Z,3.47
2022-08-22T18:30:52.418Z,3.52
2022-08-22T18:33:32.907Z,3.30
2022-08-22T18:36:15.337Z,2.90
2022-08-22T18:39:23.459Z,2.65
2022-08-22T18:42:02.947Z,2.70
2022-08-22T18:44:34.918Z,2.47
2022-08-22T18:47:22.447Z,2.65
2022-08-22T18:49:54.040Z,2.40
2022-08-22T18:52:30.612Z,2.47
2022-08-22T18:55:23.163Z,2.80
2022-08-22T18:58:17.680Z,2.33
2022-08-22T19:00:59.602Z,2.80
2022-08-22T19:03:53.339Z,3.05
2022-08-22T19:09:33.889Z,3.52
2022-08-22T19:12:12.971Z,3.25
2022-08-22T19:15:16.248Z,3.25
2022-08-22T19:18:01.649Z,2.90
2022-08-22T19:20:55.286Z,3.22
2022-08-22T19:23:43.157Z,3.33
2022-08-22T19:26:37.101Z,3.30
2022-08-22T19:29:20.976Z,3.10
2022-08-22T19:32:02.680Z,3.00
2022-08-22T19:34:36.791Z,3.00
2022-08-22T19:37:30.433Z,3.33
2022-08-22T19:40:05.884Z,2.85
2022-08-22T19:42:38.082Z,3.30
2022-08-22T19:45:28.560Z,3.25
2022-08-22T19:48:10.524Z,3.10
2022-08-22T19:50:37.970Z,3.10
2022-08-22T19:53:41.610Z,3.27
2022-08-22T19:56:32.177Z,6.22
2022-08-22T19:59:14.689Z,6.03
2022-08-22T20:02:08.998Z,4.17
2022-08-22T20:04:54.382Z,3.92
2022-08-22T20:08:04.834Z,2.77
2022-08-22T20:10:56.322Z,2.30
2022-08-22T20:13:28.825Z,2.40
2022-08-22T20:16:07.866Z,2.35
2022-08-22T20:19:09.225Z,2.20
2022-08-22T20:21:58.724Z,2.02
2022-08-22T20:24:40.047Z,2.10
2022-08-22T20:27:21.925Z,2.75
2022-08-22T20:30:04.332Z,2.47
2022-08-22T20:32:39.853Z,2.33
2022-08-22T20:35:12.516Z,2.70
2022-08-22T20:38:05.770Z,2.40
2022-08-22T20:40:56.501Z,2.17
2022-08-22T20:43:34.612Z,1.98
2022-08-22T20:46:45.360Z,2.20
2022-08-22T20:49:22.013Z,1.72
2022-08-22T20:51:56.911Z,2.33
2022-08-22T20:54:32.421Z,2.50
2022-08-22T20:57:15.518Z,2.10
2022-08-22T20:59:54.799Z,2.70
2022-08-22T21:02:37.091Z,2.15
2022-08-22T21:05:17.619Z,2.42
2022-08-22T21:08:05.825Z,2.80
2022-08-22T21:10:55.016Z,2.85
2022-08-22T21:13:31.334Z,3.67
2022-08-22T21:16:15.976Z,2.95
2022-08-22T21:18:52.893Z,2.80
2022-08-22T21:21:28.497Z,2.60
2022-08-22T21:24:04.573Z,2.15
2022-08-22T21:26:53.007Z,2.40
2022-08-22T21:29:26.561Z,2.00
2022-08-22T21:32:16.283Z,1.90
2022-08-22T21:34:48.584Z,2.08
2022-08-22T21:37:24.426Z,2.05
2022-08-22T21:40:15.830Z,2.22
2022-08-22T21:43:05.094Z,2.30
2022-08-22T21:45:43.119Z,2.65
2022-08-22T21:48:37.181Z,2.25
2022-08-22T21:51:42.940Z,2.10
2022-08-22T21:54:35.615Z,2.42
2022-08-22T21:57:14.417Z,2.20
2022-08-22T21:59:51.880Z,2.60
2022-08-22T22:02:39.983Z,2.10
2022-08-22T22:05:12.857Z,2.37
2022-08-22T22:07:44.635Z,2.35
2022-08-22T22:10:16.868Z,2.25
2022-08-22T22:12:47.401Z,2.10
2022-08-22T22:15:19.271Z,2.08
2022-08-22T22:17:47.252Z,2.35
2022-08-22T22:20:17.193Z,2.22
2022-08-22T22:22:46.850Z,1.98
2022-08-22T22:25:40.263Z,2.10
2022-08-22T22:27:47.399Z,2.30
2022-08-22T22:30:17.968Z,3.10
2022-08-22T22:32:48.762Z,4.30
2022-08-22T22:35:18.833Z,4.03
2022-08-22T22:37:47.032Z,4.65
2022-08-22T22:40:14.983Z,5.15
2022-08-22T22:42:43.061Z,4.45
2022-08-22T22:45:11.158Z,4.15
2022-08-22T22:47:38.782Z,3.25
2022-08-22T22:50:07.864Z,3.10
2022-08-22T22:52:40.704Z,4.33
2022-08-22T22:55:07.728Z,4.10
2022-08-22T22:57:42.488Z,3.65
2022-08-22T23:00:07.498Z,6.55
2022-08-22T23:02:35.321Z,4.05
2022-08-22T23:05:03.249Z,2.85
2022-08-22T23:07:33.998Z,2.33
2022-08-22T23:10:02.287Z,2.40
2022-08-22T23:12:30.228Z,2.10
2022-08-22T23:14:57.929Z,2.47
2022-08-22T23:17:26.000Z,2.50
2022-08-22T23:19:53.703Z,3.50
2022-08-22T23:22:21.232Z,6.40
2022-08-22T23:24:50.025Z,3.25
2022-08-22T23:27:18.117Z,2.50
2022-08-22T23:29:46.013Z,2.50
2022-08-22T23:32:14.606Z,2.98
2022-08-22T23:34:46.188Z,3.00
2022-08-22T23:37:18.148Z,2.80
2022-08-22T23:39:46.122Z,2.72
2022-08-22T23:42:15.921Z,2.60
2022-08-22T23:44:45.480Z,2.58
2022-08-22T23:47:14.474Z,3.10
2022-08-22T23:49:42.755Z,2.62
2022-08-22T23:52:12.524Z,2.72
2022-08-22T23:54:40.184Z,2.10
2022-08-22T23:57:12.160Z,2.40
2022-08-22T23:59:40.739Z,2.55
